createdAt,value
2018-11-06T00:00:15.551Z,21.27
2018-11-06T00:02:45.140Z,20.60
2018-11-06T00:05:16.007Z,21.53
2018-11-06T00:07:45.877Z,21.77
2018-11-06T00:10:15.367Z,19.33
2018-11-06T00:12:44.773Z,23.17
2018-11-06T00:15:14.278Z,20.53
2018-11-06T00:17:43.601Z,20.53
2018-11-06T00:20:14.192Z,21.00
2018-11-06T00:22:43.676Z,21.63
2018-11-06T00:25:13.860Z,20.93
2018-11-06T00:27:43.350Z,20.73
2018-11-06T00:30:14.176Z,24.13
2018-11-06T00:32:44.045Z,20.57
2018-11-06T00:35:14.615Z,18.30
2018-11-06T00:37:44.924Z,26.97
2018-11-06T00:40:14.444Z,18.90
2018-11-06T00:42:43.840Z,21.27
2018-11-06T00:45:15.467Z,22.00
2018-11-06T00:47:44.869Z,20.20
2018-11-06T00:50:14.950Z,19.80
2018-11-06T00:52:44.989Z,20.57
2018-11-06T00:55:14.680Z,23.93
2018-11-06T00:57:44.753Z,21.53
2018-11-06T01:00:16.050Z,20.93
2018-11-06T01:02:45.596Z,19.33
2018-11-06T01:05:15.810Z,22.00
2018-11-06T01:07:47.544Z,20.97
2018-11-06T01:10:16.976Z,22.73
2018-11-06T01:12:46.357Z,24.10
2018-11-06T01:15:16.714Z,20.90
2018-11-06T01:17:46.476Z,23.40
2018-11-06T01:20:17.682Z,24.97
2018-11-06T01:22:46.834Z,20.87
2018-11-06T01:25:16.612Z,26.13
2018-11-06T01:27:46.148Z,24.97
2018-11-06T01:30:18.633Z,20.53
2018-11-06T01:32:48.439Z,20.20
2018-11-06T01:35:18.296Z,20.07
2018-11-06T01:37:47.947Z,19.70
2018-11-06T01:40:18.554Z,22.10
2018-11-06T01:42:48.694Z,22.77
2018-11-06T01:45:19.408Z,23.70
2018-11-06T01:47:48.927Z,27.17
2018-11-06T01:50:18.879Z,23.43
2018-11-06T01:52:48.743Z,27.03
2018-11-06T01:55:18.132Z,24.83
2018-11-06T01:57:47.497Z,28.50
2018-11-06T02:00:18.188Z,23.53
2018-11-06T02:02:47.896Z,25.70
2018-11-06T02:05:18.367Z,23.37
2018-11-06T02:07:48.995Z,24.00
2018-11-06T02:10:18.880Z,30.37
2018-11-06T02:12:48.617Z,28.17
2018-11-06T02:15:17.973Z,26.07
2018-11-06T02:17:47.511Z,28.47
2018-11-06T02:20:17.290Z,24.53
2018-11-06T02:22:47.203Z,26.70
2018-11-06T02:25:16.855Z,27.70
2018-11-06T02:27:46.355Z,27.40
2018-11-06T02:30:16.857Z,27.47
2018-11-06T02:32:46.938Z,29.43
2018-11-06T02:35:16.568Z,23.73
2018-11-06T02:37:46.183Z,23.87
2018-11-06T02:40:16.447Z,23.70
2018-11-06T02:42:45.768Z,25.20
2018-11-06T02:45:15.440Z,27.47
2018-11-06T02:47:44.915Z,26.80
2018-11-06T02:50:15.031Z,28.43
2018-11-06T02:52:45.057Z,27.17
2018-11-06T02:55:14.778Z,25.70
2018-11-06T02:57:44.204Z,24.60
2018-11-06T03:00:16.139Z,27.47
2018-11-06T03:02:46.551Z,24.77
2018-11-06T03:05:15.969Z,23.73
2018-11-06T03:07:45.386Z,25.23
2018-11-06T03:10:15.411Z,25.47
2018-11-06T03:12:45.090Z,26.03
2018-11-06T03:15:15.075Z,26.57
2018-11-06T03:17:44.334Z,27.77
2018-11-06T03:20:14.140Z,25.83
2018-11-06T03:22:43.729Z,27.17
2018-11-06T03:25:12.872Z,26.70
2018-11-06T03:27:42.057Z,25.93
2018-11-06T03:30:13.824Z,27.33
2018-11-06T03:32:42.927Z,28.00
2018-11-06T03:35:13.164Z,32.00
2018-11-06T03:37:42.240Z,25.83
2018-11-06T03:40:11.985Z,29.80
2018-11-06T03:42:41.989Z,32.23
2018-11-06T03:45:11.987Z,26.73
2018-11-06T03:47:41.076Z,25.10
2018-11-06T03:50:11.656Z,28.47
2018-11-06T03:52:40.746Z,31.63
2018-11-06T03:55:10.305Z,31.17
2018-11-06T03:57:39.365Z,26.23
2018-11-06T04:00:10.912Z,25.60
2018-11-06T04:02:40.702Z,29.13
2018-11-06T04:05:10.308Z,26.37
2018-11-06T04:07:39.345Z,28.47
2018-11-06T04:10:09.838Z,27.03
2018-11-06T04:12:39.499Z,24.77
2018-11-06T04:15:09.350Z,25.43
2018-11-06T04:17:38.454Z,27.77
2018-11-06T04:20:08.240Z,23.07
2018-11-06T04:22:37.390Z,22.00
2018-11-06T04:25:07.258Z,25.90
2018-11-06T04:27:36.320Z,22.77
2018-11-06T04:30:07.176Z,21.07
2018-11-06T04:32:36.365Z,23.87
2018-11-06T04:35:06.233Z,24.70
2018-11-06T04:37:35.288Z,23.40
2018-11-06T04:40:04.646Z,23.70
2018-11-06T04:42:33.772Z,23.77
2018-11-06T04:45:02.848Z,26.50
2018-11-06T04:47:31.969Z,24.87
2018-11-06T04:50:01.195Z,25.40
2018-11-06T04:52:30.297Z,20.97
2018-11-06T04:54:59.354Z,23.83
2018-11-06T04:57:28.573Z,28.13
2018-11-06T04:59:57.690Z,27.37
2018-11-06T05:02:26.899Z,25.33
2018-11-06T05:04:56.013Z,25.43
2018-11-06T05:07:25.173Z,25.80
2018-11-06T05:09:54.247Z,27.33
2018-11-06T05:12:23.475Z,27.10
2018-11-06T05:14:52.509Z,27.07
2018-11-06T05:17:21.704Z,28.97
2018-11-06T05:19:50.723Z,30.50
2018-11-06T05:22:19.823Z,29.90
2018-11-06T05:24:48.880Z,26.00
2018-11-06T05:27:17.987Z,29.00
2018-11-06T05:29:47.113Z,22.93
2018-11-06T05:32:16.293Z,25.87
2018-11-06T05:34:45.406Z,24.30
2018-11-06T05:37:14.501Z,26.17
2018-11-06T05:39:54.709Z,24.80
2018-11-06T05:42:23.813Z,27.97
2018-11-06T05:44:52.960Z,29.30
2018-11-06T05:47:22.037Z,27.87
2018-11-06T05:49:51.105Z,25.93
2018-11-06T05:52:20.689Z,26.17
2018-11-06T05:54:49.840Z,26.37
2018-11-06T05:57:18.890Z,30.27
2018-11-06T05:59:47.973Z,25.93
2018-11-06T06:02:17.189Z,25.33
2018-11-06T06:04:46.312Z,26.03
2018-11-06T06:07:15.441Z,28.53
2018-11-06T06:09:44.650Z,29.47
2018-11-06T06:12:13.817Z,25.40
2018-11-06T06:14:42.885Z,28.77
2018-11-06T06:17:12.057Z,29.20
2018-11-06T06:19:41.144Z,27.30
2018-11-06T06:22:10.189Z,28.13
2018-11-06T06:24:39.305Z,30.13
2018-11-06T06:27:08.445Z,30.17
2018-11-06T06:29:37.596Z,32.17
2018-11-06T06:32:06.723Z,33.63
2018-11-06T06:34:35.863Z,28.50
2018-11-06T06:37:05.473Z,31.30
2018-11-06T06:39:34.628Z,33.93
2018-11-06T06:42:03.652Z,36.63
2018-11-06T06:44:32.716Z,30.00
2018-11-06T06:47:02.065Z,29.03
2018-11-06T06:49:31.101Z,30.17
2018-11-06T06:52:00.299Z,33.87
2018-11-06T06:54:29.496Z,28.17
2018-11-06T06:56:58.770Z,29.97
2018-11-06T06:59:27.856Z,27.77
2018-11-06T07:01:57.031Z,28.70
2018-11-06T07:04:26.068Z,26.47
2018-11-06T07:06:55.152Z,23.33
2018-11-06T07:09:24.250Z,31.20
2018-11-06T07:11:53.306Z,27.57
2018-11-06T07:14:22.450Z,23.77
2018-11-06T07:16:51.487Z,32.37
2018-11-06T07:19:20.548Z,25.80
2018-11-06T07:21:49.648Z,23.50
2018-11-06T07:24:18.838Z,23.20
2018-11-06T07:26:47.902Z,25.17
2018-11-06T07:29:17.067Z,26.30
2018-11-06T07:31:46.128Z,25.47
2018-11-06T07:34:15.260Z,24.70
2018-11-06T07:36:44.301Z,23.03
2018-11-06T07:39:13.644Z,20.80
2018-11-06T07:41:42.667Z,24.33
2018-11-06T07:44:12.181Z,25.80
2018-11-06T07:46:41.363Z,25.10
2018-11-06T07:49:10.522Z,21.83
2018-11-06T07:51:39.553Z,24.63
2018-11-06T07:54:08.574Z,21.70
2018-11-06T07:56:37.676Z,24.87
2018-11-06T07:59:07.143Z,20.27
2018-11-06T08:01:36.214Z,19.60
2018-11-06T08:04:05.736Z,16.77
2018-11-06T08:06:34.919Z,19.37
2018-11-06T08:09:05.132Z,21.00
2018-11-06T08:11:34.200Z,17.80
2018-11-06T08:14:03.469Z,20.60
2018-11-06T08:16:32.482Z,18.13
2018-11-06T08:19:01.561Z,16.00
2018-11-06T08:21:30.735Z,17.47
2018-11-06T08:23:59.899Z,16.37
2018-11-06T08:26:28.965Z,14.80
2018-11-06T08:28:58.076Z,17.20
2018-11-06T08:31:27.661Z,15.00
2018-11-06T08:33:56.210Z,18.57
2018-11-06T08:36:25.278Z,16.93
2018-11-06T08:38:54.332Z,15.90
2018-11-06T08:41:23.468Z,14.87
2018-11-06T08:43:52.573Z,17.83
2018-11-06T08:46:21.659Z,13.63
2018-11-06T08:48:50.757Z,16.97
2018-11-06T08:51:19.892Z,15.77
2018-11-06T08:53:48.959Z,14.07
2018-11-06T08:56:18.114Z,15.13
2018-11-06T08:58:47.291Z,18.80
2018-11-06T09:01:16.413Z,16.80
2018-11-06T09:03:45.556Z,17.27
2018-11-06T09:06:14.651Z,16.13
2018-11-06T09:08:43.996Z,17.00
2018-11-06T09:11:13.103Z,15.03
2018-11-06T09:13:42.188Z,14.13
2018-11-06T09:16:11.240Z,14.73
2018-11-06T09:18:40.337Z,15.27
2018-11-06T09:21:09.474Z,14.53
2018-11-06T09:23:38.551Z,14.57
2018-11-06T09:26:07.630Z,12.97
2018-11-06T09:28:36.692Z,15.23
2018-11-06T09:31:06.314Z,14.20
2018-11-06T09:33:35.432Z,14.90
2018-11-06T09:36:04.503Z,13.43
2018-11-06T09:38:33.596Z,16.73
2018-11-06T09:41:02.751Z,12.93
2018-11-06T09:43:31.923Z,14.87
2018-11-06T09:46:00.973Z,12.83
2018-11-06T09:48:30.196Z,16.43
2018-11-06T09:50:59.312Z,14.13
2018-11-06T09:53:28.439Z,12.10
2018-11-06T09:55:57.470Z,11.60
2018-11-06T09:58:26.618Z,13.27
2018-11-06T10:00:55.715Z,18.13
2018-11-06T10:03:24.813Z,12.93
2018-11-06T10:05:53.879Z,9.90
2018-11-06T10:08:22.999Z,13.30
2018-11-06T10:10:52.068Z,13.20
2018-11-06T10:13:21.132Z,14.50
2018-11-06T10:15:50.292Z,14.03
2018-11-06T10:18:19.403Z,14.50
2018-11-06T10:20:48.516Z,11.57
2018-11-06T10:23:17.591Z,15.87
2018-11-06T10:25:46.767Z,15.87
2018-11-06T10:28:15.935Z,15.67
2018-11-06T10:30:45.039Z,16.90
2018-11-06T10:33:14.139Z,15.63
2018-11-06T10:35:43.180Z,16.63
2018-11-06T10:38:12.398Z,14.63
2018-11-06T10:40:41.420Z,16.20
2018-11-06T10:43:10.556Z,16.50
2018-11-06T10:45:39.592Z,14.33
2018-11-06T10:48:08.899Z,14.83
2018-11-06T10:50:37.948Z,15.67
2018-11-06T10:53:06.995Z,14.90
2018-11-06T10:55:36.061Z,13.83
2018-11-06T10:58:05.149Z,12.30
2018-11-06T11:00:39.570Z,13.30
2018-11-06T11:03:13.810Z,15.50
2018-11-06T11:05:42.907Z,14.90
2018-11-06T11:08:11.953Z,13.57
2018-11-06T11:10:40.978Z,13.97
2018-11-06T11:13:10.021Z,12.73
2018-11-06T11:15:39.242Z,15.73
2018-11-06T11:18:08.308Z,13.80
2018-11-06T11:20:37.342Z,12.33
2018-11-06T11:23:07.481Z,15.83
2018-11-06T11:25:36.749Z,14.73
2018-11-06T11:28:05.848Z,12.27
2018-11-06T11:30:34.877Z,12.77
2018-11-06T11:33:04.067Z,14.03
2018-11-06T11:35:33.136Z,15.07
2018-11-06T11:38:02.292Z,12.67
2018-11-06T11:40:31.506Z,14.50
2018-11-06T11:43:00.555Z,12.23
2018-11-06T11:45:29.572Z,14.20
2018-11-06T11:47:58.631Z,14.93
2018-11-06T11:50:27.746Z,14.13
2018-11-06T11:52:56.846Z,15.03
2018-11-06T11:55:25.943Z,15.20
2018-11-06T11:57:55.072Z,15.43
2018-11-06T12:00:27.400Z,13.30
2018-11-06T12:02:57.065Z,14.03
2018-11-06T12:05:26.186Z,14.97
2018-11-06T12:07:55.274Z,17.00
2018-11-06T12:10:24.334Z,16.40
2018-11-06T12:12:53.452Z,13.87
2018-11-06T12:15:22.517Z,16.20
2018-11-06T12:17:51.544Z,14.97
2018-11-06T12:20:20.668Z,14.77
2018-11-06T12:22:49.770Z,15.23
2018-11-06T12:25:18.987Z,14.10
2018-11-06T12:27:47.912Z,16.97
2018-11-06T12:30:17.699Z,15.03
2018-11-06T12:32:46.765Z,17.23
2018-11-06T12:35:16.075Z,18.17
2018-11-06T12:37:45.260Z,13.97
2018-11-06T12:40:14.993Z,14.27
2018-11-06T12:42:44.375Z,16.07
2018-11-06T12:45:15.754Z,14.37
2018-11-06T12:47:45.365Z,14.60
2018-11-06T12:50:14.671Z,17.33
2018-11-06T12:52:43.733Z,14.83
2018-11-06T12:55:14.947Z,15.53
2018-11-06T12:57:44.023Z,17.23
2018-11-06T13:00:18.923Z,13.00
2018-11-06T13:02:48.015Z,13.10
2018-11-06T13:05:17.093Z,12.83
2018-11-06T13:07:46.579Z,13.90
2018-11-06T13:10:16.351Z,19.43
2018-11-06T13:12:45.400Z,14.43
2018-11-06T13:15:15.640Z,12.83
2018-11-06T13:17:43.784Z,15.00
2018-11-06T13:20:14.264Z,14.03
2018-11-06T13:22:44.093Z,16.63
2018-11-06T13:25:13.395Z,13.47
2018-11-06T13:27:42.888Z,13.20
2018-11-06T13:30:14.069Z,13.67
2018-11-06T13:32:43.882Z,14.87
2018-11-06T13:35:13.022Z,11.40
2018-11-06T13:37:42.080Z,13.73
2018-11-06T13:40:12.580Z,12.27
2018-11-06T13:42:42.329Z,14.17
2018-11-06T13:45:15.054Z,12.17
2018-11-06T13:47:44.069Z,11.77
2018-11-06T13:50:13.205Z,11.00
2018-11-06T13:52:42.376Z,12.67
2018-11-06T13:55:12.965Z,10.83
2018-11-06T13:57:42.621Z,12.00
2018-11-06T14:00:19.933Z,12.27
2018-11-06T14:02:49.027Z,13.27
2018-11-06T14:05:18.265Z,13.90
2018-11-06T14:07:47.273Z,12.57
2018-11-06T14:10:16.396Z,12.93
2018-11-06T14:12:45.892Z,17.70
2018-11-06T14:15:15.012Z,22.87
2018-11-06T14:17:44.274Z,22.37
2018-11-06T14:20:14.719Z,18.70
2018-11-06T14:22:44.257Z,17.20
2018-11-06T14:25:13.328Z,14.17
2018-11-06T14:27:42.587Z,14.27
2018-11-06T14:30:13.480Z,11.90
2018-11-06T14:32:42.640Z,12.47
2018-11-06T14:35:13.003Z,14.20
2018-11-06T14:37:42.807Z,12.93
2018-11-06T14:40:13.507Z,13.47
2018-11-06T14:42:42.922Z,11.13
2018-11-06T14:45:13.597Z,12.63
2018-11-06T14:47:42.873Z,12.33
2018-11-06T14:50:12.455Z,9.97
2018-11-06T14:52:41.597Z,11.07
2018-11-06T14:55:12.285Z,13.27
2018-11-06T14:57:41.472Z,11.87
2018-11-06T15:00:14.627Z,12.17
2018-11-06T15:02:45.114Z,13.23
2018-11-06T15:05:14.487Z,12.10
2018-11-06T15:07:44.163Z,10.37
2018-11-06T15:10:13.332Z,12.03
2018-11-06T15:12:42.688Z,9.50
2018-11-06T15:15:12.908Z,10.70
2018-11-06T15:17:43.420Z,11.20
2018-11-06T15:20:18.507Z,8.87
2018-11-06T15:22:47.632Z,12.27
2018-11-06T15:25:17.581Z,13.00
2018-11-06T15:27:46.648Z,9.30
2018-11-06T15:30:16.961Z,8.50
2018-11-06T15:32:46.061Z,7.53
2018-11-06T15:35:16.456Z,5.73
2018-11-06T15:37:45.591Z,8.57
2018-11-06T15:40:16.374Z,8.43
2018-11-06T15:42:45.547Z,6.00
2018-11-06T15:45:15.872Z,6.30
2018-11-06T15:47:45.668Z,6.40
2018-11-06T15:50:16.845Z,7.43
2018-11-06T15:52:46.827Z,7.00
2018-11-06T15:55:15.960Z,6.57
2018-11-06T15:57:45.133Z,6.33
2018-11-06T16:00:19.622Z,6.23
2018-11-06T16:02:49.102Z,6.70
2018-11-06T16:05:18.312Z,6.73
2018-11-06T16:07:47.625Z,7.20
2018-11-06T16:10:18.160Z,7.17
2018-11-06T16:12:47.464Z,7.43
2018-11-06T16:15:16.648Z,7.87
2018-11-06T16:17:45.717Z,8.10
2018-11-06T16:20:16.353Z,7.67
2018-11-06T16:22:45.651Z,8.70
2018-11-06T16:25:15.878Z,11.20
2018-11-06T16:27:45.450Z,8.57
2018-11-06T16:30:15.819Z,7.30
2018-11-06T16:32:45.082Z,7.17
2018-11-06T16:35:15.591Z,7.93
2018-11-06T16:37:45.222Z,9.67
2018-11-06T16:40:14.964Z,11.00
2018-11-06T16:42:44.752Z,8.23
2018-11-06T16:45:16.681Z,8.43
2018-11-06T16:47:46.713Z,12.50
2018-11-06T16:50:16.771Z,10.80
2018-11-06T16:52:46.041Z,9.50
2018-11-06T16:55:15.607Z,10.97
2018-11-06T16:57:45.256Z,7.13
2018-11-06T17:00:17.254Z,10.37
2018-11-06T17:02:46.209Z,7.60
2018-11-06T17:05:15.835Z,6.87
2018-11-06T17:07:45.297Z,7.57
2018-11-06T17:10:15.338Z,7.47
2018-11-06T17:12:44.425Z,7.13
2018-11-06T17:15:17.620Z,5.97
2018-11-06T17:17:47.537Z,6.13
2018-11-06T17:20:16.976Z,8.13
2018-11-06T17:22:46.133Z,7.70
2018-11-06T17:25:16.545Z,6.57
2018-11-06T17:27:45.601Z,7.63
2018-11-06T17:30:16.075Z,6.90
2018-11-06T17:32:45.510Z,5.93
2018-11-06T17:35:16.143Z,6.00
2018-11-06T17:37:45.528Z,7.83
2018-11-06T17:40:16.070Z,6.07
2018-11-06T17:42:45.435Z,7.23
2018-11-06T17:45:15.998Z,7.57
2018-11-06T17:47:45.157Z,6.63
2018-11-06T17:50:15.247Z,5.33
2018-11-06T17:52:44.449Z,6.30
2018-11-06T17:55:16.317Z,8.33
2018-11-06T17:57:45.398Z,7.50
2018-11-06T18:00:16.292Z,6.00
2018-11-06T18:02:45.460Z,6.07
2018-11-06T18:05:15.478Z,5.83
2018-11-06T18:07:44.817Z,24.93
2018-11-06T18:10:16.401Z,9.20
2018-11-06T18:12:45.706Z,6.87
2018-11-06T18:15:15.004Z,6.83
2018-11-06T18:17:44.513Z,7.87
2018-11-06T18:20:14.650Z,5.80
2018-11-06T18:22:44.378Z,5.67
2018-11-06T18:25:14.105Z,7.17
2018-11-06T18:27:43.195Z,6.20
2018-11-06T18:30:14.568Z,7.43
2018-11-06T18:32:43.663Z,5.63
2018-11-06T18:35:13.804Z,5.00
2018-11-06T18:37:42.863Z,6.60
2018-11-06T18:40:14.757Z,6.43
2018-11-06T18:42:44.690Z,7.10
2018-11-06T18:45:14.504Z,6.57
2018-11-06T18:47:43.767Z,9.53
2018-11-06T18:50:14.010Z,7.43
2018-11-06T18:52:44.508Z,7.80
2018-11-06T18:55:13.670Z,6.87
2018-11-06T18:57:43.030Z,8.13
2018-11-06T19:00:14.702Z,7.50
2018-11-06T19:02:45.007Z,9.07
2018-11-06T19:05:14.762Z,9.10
2018-11-06T19:07:43.808Z,11.53
2018-11-06T19:10:13.944Z,10.30
2018-11-06T19:12:43.211Z,15.10
2018-11-06T19:15:14.732Z,11.40
2018-11-06T19:17:44.765Z,13.43
2018-11-06T19:20:14.441Z,12.43
2018-11-06T19:22:43.679Z,13.63
2018-11-06T19:25:13.631Z,13.27
2018-11-06T19:27:42.960Z,18.73
2018-11-06T19:30:16.013Z,13.60
2018-11-06T19:32:45.318Z,17.63
2018-11-06T19:35:14.564Z,16.00
2018-11-06T19:37:43.908Z,18.20
2018-11-06T19:40:14.514Z,17.53
2018-11-06T19:42:44.836Z,19.73
2018-11-06T19:45:14.407Z,18.70
2018-11-06T19:47:44.124Z,20.27
2018-11-06T19:50:16.085Z,19.27
2018-11-06T19:52:45.816Z,18.93
2018-11-06T19:55:16.799Z,19.77
2018-11-06T19:57:46.737Z,22.07
2018-11-06T20:00:20.964Z,22.00
2018-11-06T20:02:52.153Z,22.43
2018-11-06T20:05:22.983Z,23.70
2018-11-06T20:07:53.629Z,22.77
2018-11-06T20:10:25.396Z,24.23
2018-11-06T20:12:56.639Z,26.30
2018-11-06T20:15:27.058Z,25.83
2018-11-06T20:17:58.845Z,26.50
2018-11-06T20:20:29.721Z,25.57
2018-11-06T20:23:01.119Z,27.67
2018-11-06T20:25:31.908Z,28.10
2018-11-06T20:28:02.736Z,27.33
2018-11-06T20:30:33.712Z,25.17
2018-11-06T20:33:04.834Z,28.03
2018-11-06T20:35:35.896Z,32.37
2018-11-06T20:38:08.452Z,29.93
2018-11-06T20:40:40.234Z,34.43
2018-11-06T20:43:11.356Z,34.27
2018-11-06T20:45:42.345Z,35.97
2018-11-06T20:48:13.561Z,31.80
2018-11-06T20:50:44.841Z,33.33
2018-11-06T20:53:17.005Z,33.20
2018-11-06T20:55:48.276Z,34.97
2018-11-06T20:58:18.880Z,33.93
2018-11-06T21:00:49.630Z,31.30
2018-11-06T21:03:21.074Z,36.40
2018-11-06T21:05:52.825Z,31.30
2018-11-06T21:08:23.855Z,33.07
2018-11-06T21:10:54.942Z,32.30
2018-11-06T21:13:25.832Z,31.40
2018-11-06T21:15:58.183Z,31.63
2018-11-06T21:18:29.401Z,29.00
2018-11-06T21:21:00.586Z,29.40
2018-11-06T21:23:31.958Z,30.83
2018-11-06T21:26:02.945Z,30.37
2018-11-06T21:28:33.726Z,32.30
2018-11-06T21:31:04.715Z,30.63
2018-11-06T21:33:35.728Z,31.37
2018-11-06T21:36:06.649Z,31.33
2018-11-06T21:38:38.555Z,29.60
2018-11-06T21:41:09.184Z,29.07
2018-11-06T21:43:39.636Z,26.70
2018-11-06T21:46:10.335Z,36.03
2018-11-06T21:48:40.949Z,33.83
2018-11-06T21:51:11.376Z,42.17
2018-11-06T21:53:41.797Z,43.13
2018-11-06T21:56:12.552Z,48.03
2018-11-06T21:58:42.895Z,57.80
2018-11-06T22:01:13.067Z,54.83
2018-11-06T22:03:43.422Z,51.20
2018-11-06T22:06:13.457Z,55.70
2018-11-06T22:08:43.606Z,58.33
2018-11-06T22:11:13.351Z,57.93
2018-11-06T22:13:43.441Z,58.10
2018-11-06T22:16:13.213Z,52.10
2018-11-06T22:18:43.008Z,62.43
2018-11-06T22:21:12.480Z,53.93
2018-11-06T22:23:41.926Z,55.73
2018-11-06T22:26:11.299Z,53.93
2018-11-06T22:28:40.764Z,52.90
2018-11-06T22:31:09.921Z,56.93
2018-11-06T22:33:39.211Z,63.23
2018-11-06T22:36:08.482Z,61.13
2018-11-06T22:38:37.711Z,56.60
2018-11-06T22:41:07.032Z,59.47
2018-11-06T22:43:36.177Z,56.23
2018-11-06T22:46:05.300Z,54.03
2018-11-06T22:48:34.412Z,55.67
2018-11-06T22:51:03.539Z,52.50
2018-11-06T22:53:32.601Z,55.30
2018-11-06T22:56:01.720Z,52.10
2018-11-06T22:58:31.078Z,51.97
2018-11-06T23:01:05.497Z,48.57
2018-11-06T23:03:34.646Z,53.70
2018-11-06T23:06:03.797Z,50.20
2018-11-06T23:08:32.777Z,48.23
2018-11-06T23:11:01.876Z,49.60
2018-11-06T23:13:30.968Z,52.63
2018-11-06T23:16:00.012Z,56.83
2018-11-06T23:18:29.036Z,46.53
2018-11-06T23:20:58.126Z,55.33
2018-11-06T23:23:27.199Z,51.63
2018-11-06T23:25:56.280Z,49.00
2018-11-06T23:28:25.348Z,49.47
2018-11-06T23:30:54.630Z,51.73
2018-11-06T23:33:23.734Z,49.80
2018-11-06T23:35:52.844Z,43.80
2018-11-06T23:38:21.935Z,45.87
2018-11-06T23:40:51.128Z,45.87
2018-11-06T23:43:20.216Z,49.90
2018-11-06T23:45:49.280Z,46.43
2018-11-06T23:48:18.299Z,48.57
2018-11-06T23:50:47.375Z,46.30
2018-11-06T23:53:16.488Z,44.77
2018-11-06T23:55:45.614Z,46.47
2018-11-06T23:58:14.771Z,42.10
